sensor_id;sensor_type;location;lat;lon;timestamp;pressure;altitude;pressure_sealevel;temperature;humidity
75312;BME280;63906;55.686;37.532;2022-11-27T00:01:45;101189.31;;;-4.36;75.75
75312;BME280;63906;55.686;37.532;2022-11-27T00:06:46;101199.59;;;-4.36;76.32
75312;BME280;63906;55.686;37.532;2022-11-27T00:11:46;101185.97;;;-4.38;75.90
75312;BME280;63906;55.686;37.532;2022-11-27T00:16:47;101181.34;;;-4.28;76.70
75312;BME280;63906;55.686;37.532;2022-11-27T00:21:47;101154.78;;;-4.28;75.80
75312;BME280;63906;55.686;37.532;2022-11-27T00:26:48;101197.59;;;-4.27;76.24
75312;BME280;63906;55.686;37.532;2022-11-27T00:31:49;101162.09;;;-4.41;76.02
75312;BME280;63906;55.686;37.532;2022-11-27T00:36:49;101175.91;;;-4.20;75.21
75312;BME280;63906;55.686;37.532;2022-11-27T00:41:50;101171.88;;;-4.27;75.60
75312;BME280;63906;55.686;37.532;2022-11-27T00:46:50;101176.44;;;-4.12;75.21
75312;BME280;63906;55.686;37.532;2022-11-27T00:51:51;101167.97;;;-4.14;75.16
75312;BME280;63906;55.686;37.532;2022-11-27T00:56:51;101185.81;;;-4.11;75.72
75312;BME280;63906;55.686;37.532;2022-11-27T01:01:52;101165.00;;;-4.27;76.50
75312;BME280;63906;55.686;37.532;2022-11-27T01:06:52;101170.22;;;-4.28;76.59
75312;BME280;63906;55.686;37.532;2022-11-27T01:11:53;101185.22;;;-4.18;76.22
75312;BME280;63906;55.686;37.532;2022-11-27T01:16:53;101186.28;;;-4.23;77.09
75312;BME280;63906;55.686;37.532;2022-11-27T01:21:54;101169.97;;;-4.22;76.34
75312;BME280;63906;55.686;37.532;2022-11-27T01:26:54;101165.75;;;-4.47;76.88
75312;BME280;63906;55.686;37.532;2022-11-27T01:31:55;101158.88;;;-4.46;77.55
75312;BME280;63906;55.686;37.532;2022-11-27T01:36:55;101166.22;;;-4.61;78.12
75312;BME280;63906;55.686;37.532;2022-11-27T01:41:56;101156.41;;;-4.73;78.60
75312;BME280;63906;55.686;37.532;2022-11-27T01:47:03;101130.41;;;-5.12;78.30
75312;BME280;63906;55.686;37.532;2022-11-27T01:52:12;101204.84;;;-4.39;78.61
75312;BME280;63906;55.686;37.532;2022-11-27T01:57:23;101165.16;;;-4.31;77.63
75312;BME280;63906;55.686;37.532;2022-11-27T02:02:25;101170.22;;;-4.28;77.78
75312;BME280;63906;55.686;37.532;2022-11-27T02:07:26;101170.22;;;-4.28;77.64
75312;BME280;63906;55.686;37.532;2022-11-27T02:12:51;101167.72;;;-4.08;77.36
75312;BME280;63906;55.686;37.532;2022-11-27T02:18:44;101189.78;;;-4.02;77.65
75312;BME280;63906;55.686;37.532;2022-11-27T02:23:35;101210.75;;;-4.13;78.31
75312;BME280;63906;55.686;37.532;2022-11-27T02:34:03;101183.94;;;-4.29;78.60
75312;BME280;63906;55.686;37.532;2022-11-27T02:39:11;101207.19;;;-4.09;78.40
75312;BME280;63906;55.686;37.532;2022-11-27T02:44:15;101181.34;;;-4.06;78.44
75312;BME280;63906;55.686;37.532;2022-11-27T02:49:18;101211.19;;;-3.78;77.49
75312;BME280;63906;55.686;37.532;2022-11-27T02:54:26;101200.75;;;-3.97;78.28
75312;BME280;63906;55.686;37.532;2022-11-27T02:59:29;101209.34;;;-3.98;78.33
75312;BME280;63906;55.686;37.532;2022-11-27T03:04:34;101187.56;;;-4.12;78.53
75312;BME280;63906;55.686;37.532;2022-11-27T03:09:43;101196.09;;;-4.11;79.21
75312;BME280;63906;55.686;37.532;2022-11-27T03:14:44;101215.53;;;-3.81;78.46
75312;BME280;63906;55.686;37.532;2022-11-27T03:19:56;101221.56;;;-3.82;78.38
75312;BME280;63906;55.686;37.532;2022-11-27T03:24:58;101194.56;;;-4.15;78.96
75312;BME280;63906;55.686;37.532;2022-11-27T03:30:00;101220.50;;;-3.76;78.18
75312;BME280;63906;55.686;37.532;2022-11-27T03:35:01;101185.56;;;-3.82;77.51
75312;BME280;63906;55.686;37.532;2022-11-27T03:40:06;101197.66;;;-3.84;77.72
75312;BME280;63906;55.686;37.532;2022-11-27T03:45:16;101219.44;;;-3.70;77.16
75312;BME280;63906;55.686;37.532;2022-11-27T03:55:47;101201.75;;;-3.80;76.92
75312;BME280;63906;55.686;37.532;2022-11-27T04:00:50;101155.16;;;-3.94;76.63
75312;BME280;63906;55.686;37.532;2022-11-27T04:05:52;101200.41;;;-3.66;76.77
75312;BME280;63906;55.686;37.532;2022-11-27T04:10:53;101209.91;;;-3.68;76.31
75312;BME280;63906;55.686;37.532;2022-11-27T04:15:54;101187.59;;;-3.68;75.30
75312;BME280;63906;55.686;37.532;2022-11-27T04:20:55;101190.22;;;-3.69;75.38
75312;BME280;63906;55.686;37.532;2022-11-27T04:25:55;101134.38;;;-4.10;75.50
75312;BME280;63906;55.686;37.532;2022-11-27T04:30:56;101212.84;;;-3.77;75.55
75312;BME280;63906;55.686;37.532;2022-11-27T04:35:57;101221.22;;;-3.72;76.17
75312;BME280;63906;55.686;37.532;2022-11-27T04:40:57;101207.69;;;-3.77;76.69
75312;BME280;63906;55.686;37.532;2022-11-27T04:45:58;101198.34;;;-3.80;76.94
75312;BME280;63906;55.686;37.532;2022-11-27T04:50:58;101219.72;;;-3.56;76.56
75312;BME280;63906;55.686;37.532;2022-11-27T04:55:59;101217.91;;;-3.54;76.63
75312;BME280;63906;55.686;37.532;2022-11-27T05:00:59;101203.03;;;-3.46;75.73
75312;BME280;63906;55.686;37.532;2022-11-27T05:06:00;101219.97;;;-3.40;76.04
75312;BME280;63906;55.686;37.532;2022-11-27T05:11:07;101225.22;;;-3.65;76.19
75312;BME280;63906;55.686;37.532;2022-11-27T05:16:08;101210.56;;;-3.63;76.40
75312;BME280;63906;55.686;37.532;2022-11-27T05:21:08;101219.66;;;-3.33;75.93
75312;BME280;63906;55.686;37.532;2022-11-27T05:26:09;101205.88;;;-3.32;75.90
75312;BME280;63906;55.686;37.532;2022-11-27T05:31:09;101235.94;;;-3.32;76.14
75312;BME280;63906;55.686;37.532;2022-11-27T05:36:10;101232.94;;;-3.21;75.96
75312;BME280;63906;55.686;37.532;2022-11-27T05:41:10;101226.63;;;-3.36;76.69
75312;BME280;63906;55.686;37.532;2022-11-27T05:46:13;101239.03;;;-3.24;76.83
75312;BME280;63906;55.686;37.532;2022-11-27T05:51:15;101213.53;;;-3.30;76.87
75312;BME280;63906;55.686;37.532;2022-11-27T05:56:17;101225.47;;;-3.07;77.01
75312;BME280;63906;55.686;37.532;2022-11-27T06:01:18;101208.81;;;-3.41;78.02
75312;BME280;63906;55.686;37.532;2022-11-27T06:06:19;101217.34;;;-3.18;77.54
75312;BME280;63906;55.686;37.532;2022-11-27T06:11:21;101238.31;;;-3.28;78.19
75312;BME280;63906;55.686;37.532;2022-11-27T06:16:22;101252.44;;;-3.16;78.04
75312;BME280;63906;55.686;37.532;2022-11-27T06:21:23;101250.03;;;-3.20;78.94
75312;BME280;63906;55.686;37.532;2022-11-27T06:26:26;101231.19;;;-3.21;78.91
75312;BME280;63906;55.686;37.532;2022-11-27T06:31:29;101222.63;;;-3.21;78.73
75312;BME280;63906;55.686;37.532;2022-11-27T06:36:35;101226.88;;;-3.00;78.61
75312;BME280;63906;55.686;37.532;2022-11-27T06:41:37;101225.47;;;-3.07;78.27
75312;BME280;63906;55.686;37.532;2022-11-27T06:46:37;101260.09;;;-3.14;79.30
75312;BME280;63906;55.686;37.532;2022-11-27T06:51:38;101253.28;;;-3.15;79.94
75312;BME280;63906;55.686;37.532;2022-11-27T06:56:38;101258.06;;;-2.65;78.66
75312;BME280;63906;55.686;37.532;2022-11-27T07:01:39;101236.66;;;-2.67;77.78
75312;BME280;63906;55.686;37.532;2022-11-27T07:06:41;101250.00;;;-2.99;78.88
75312;BME280;63906;55.686;37.532;2022-11-27T07:11:41;101264.81;;;-2.63;78.44
75312;BME280;63906;55.686;37.532;2022-11-27T07:16:42;101256.50;;;-2.69;78.51
75312;BME280;63906;55.686;37.532;2022-11-27T07:21:42;101261.16;;;-2.57;77.89
75312;BME280;63906;55.686;37.532;2022-11-27T07:26:43;101241.19;;;-2.73;77.63
75312;BME280;63906;55.686;37.532;2022-11-27T07:31:43;101241.06;;;-2.90;79.37
75312;BME280;63906;55.686;37.532;2022-11-27T07:36:44;101220.31;;;-2.87;79.09
75312;BME280;63906;55.686;37.532;2022-11-27T07:41:44;101244.66;;;-2.53;78.46
75312;BME280;63906;55.686;37.532;2022-11-27T07:46:45;101236.75;;;-2.30;77.55
75312;BME280;63906;55.686;37.532;2022-11-27T07:51:45;101238.03;;;-2.59;78.84
75312;BME280;63906;55.686;37.532;2022-11-27T07:56:46;101264.22;;;-2.49;77.86
75312;BME280;63906;55.686;37.532;2022-11-27T08:01:46;101236.94;;;-2.53;78.69
75312;BME280;63906;55.686;37.532;2022-11-27T08:06:48;101268.59;;;-2.31;78.06
75312;BME280;63906;55.686;37.532;2022-11-27T08:11:49;101261.56;;;-2.27;78.21
75312;BME280;63906;55.686;37.532;2022-11-27T08:16:49;101175.72;;;-2.68;77.73
75312;BME280;63906;55.686;37.532;2022-11-27T08:21:50;101214.50;;;-2.51;78.48
75312;BME280;63906;55.686;37.532;2022-11-27T08:26:50;101248.22;;;-2.37;78.08
75312;BME280;63906;55.686;37.532;2022-11-27T08:31:51;101259.28;;;-2.14;78.07
75312;BME280;63906;55.686;37.532;2022-11-27T08:36:52;101258.31;;;-1.93;78.96
75312;BME280;63906;55.686;37.532;2022-11-27T08:41:52;101234.47;;;-1.98;77.84
75312;BME280;63906;55.686;37.532;2022-11-27T08:46:53;101229.59;;;-2.04;77.82
75312;BME280;63906;55.686;37.532;2022-11-27T08:51:54;101233.56;;;-1.78;77.86
75312;BME280;63906;55.686;37.532;2022-11-27T08:56:54;101227.28;;;-1.55;76.74
75312;BME280;63906;55.686;37.532;2022-11-27T09:01:54;101246.31;;;-1.39;76.89
75312;BME280;63906;55.686;37.532;2022-11-27T09:06:55;101245.19;;;-1.33;77.32
75312;BME280;63906;55.686;37.532;2022-11-27T09:11:55;101254.56;;;-1.14;77.16
75312;BME280;63906;55.686;37.532;2022-11-27T09:16:56;101253.66;;;-1.13;75.96
75312;BME280;63906;55.686;37.532;2022-11-27T09:21:57;101176.94;;;-1.64;76.00
75312;BME280;63906;55.686;37.532;2022-11-27T09:26:58;101246.34;;;-1.22;75.33
75312;BME280;63906;55.686;37.532;2022-11-27T09:31:59;101208.53;;;-1.23;76.48
75312;BME280;63906;55.686;37.532;2022-11-27T09:36:59;101240.91;;;-0.98;75.56
75312;BME280;63906;55.686;37.532;2022-11-27T09:42:02;101238.53;;;-1.03;74.83
75312;BME280;63906;55.686;37.532;2022-11-27T09:57:16;101234.81;;;-0.80;74.88
75312;BME280;63906;55.686;37.532;2022-11-27T10:02:30;101235.94;;;-0.68;74.76
75312;BME280;63906;55.686;37.532;2022-11-27T10:18:04;101238.34;;;-0.48;73.09
75312;BME280;63906;55.686;37.532;2022-11-27T10:33:41;101224.25;;;0.07;73.56
75312;BME280;63906;55.686;37.532;2022-11-27T10:38:43;101227.22;;;-0.01;73.22
75312;BME280;63906;55.686;37.532;2022-11-27T10:43:46;101213.72;;;-0.06;72.88
75312;BME280;63906;55.686;37.532;2022-11-27T10:48:49;101205.50;;;-0.30;72.76
75312;BME280;63906;55.686;37.532;2022-11-27T10:53:52;101239.50;;;-0.53;73.41
75312;BME280;63906;55.686;37.532;2022-11-27T10:58:59;101232.28;;;-0.64;72.95
75312;BME280;63906;55.686;37.532;2022-11-27T11:04:05;101215.66;;;-0.93;73.91
75312;BME280;63906;55.686;37.532;2022-11-27T11:09:16;101225.72;;;-0.54;73.46
75312;BME280;63906;55.686;37.532;2022-11-27T11:14:26;101231.34;;;-0.46;73.62
75312;BME280;63906;55.686;37.532;2022-11-27T11:19:30;101252.00;;;-0.62;72.68
75312;BME280;63906;55.686;37.532;2022-11-27T11:24:34;101235.34;;;-0.91;73.72
75312;BME280;63906;55.686;37.532;2022-11-27T11:35:07;101253.78;;;-0.64;72.76
75312;BME280;63906;55.686;37.532;2022-11-27T11:50:14;101224.09;;;-0.90;72.62
75312;BME280;63906;55.686;37.532;2022-11-27T11:55:21;101245.00;;;-0.94;73.99
75312;BME280;63906;55.686;37.532;2022-11-27T12:00:28;101244.72;;;-1.05;74.08
75312;BME280;63906;55.686;37.532;2022-11-27T12:11:42;101258.16;;;-0.99;73.58
75312;BME280;63906;55.686;37.532;2022-11-27T12:17:04;101261.09;;;-1.24;74.39
75312;BME280;63906;55.686;37.532;2022-11-27T12:22:21;101269.81;;;-1.26;74.12
75312;BME280;63906;55.686;37.532;2022-11-27T12:48:26;101277.19;;;-2.11;76.37
75312;BME280;63906;55.686;37.532;2022-11-27T12:53:47;101301.50;;;-1.97;75.08
75312;BME280;63906;55.686;37.532;2022-11-27T12:58:54;101288.41;;;-2.12;75.55
75312;BME280;63906;55.686;37.532;2022-11-27T13:04:04;101312.38;;;-2.29;76.55
75312;BME280;63906;55.686;37.532;2022-11-27T13:09:18;101302.63;;;-2.23;76.78
75312;BME280;63906;55.686;37.532;2022-11-27T13:14:24;101295.22;;;-1.91;76.65
75312;BME280;63906;55.686;37.532;2022-11-27T13:19:42;101300.13;;;-2.05;75.78
75312;BME280;63906;55.686;37.532;2022-11-27T13:24:43;101293.13;;;-2.41;77.76
75312;BME280;63906;55.686;37.532;2022-11-27T13:30:04;101300.94;;;-2.24;77.19
75312;BME280;63906;55.686;37.532;2022-11-27T13:35:38;101293.75;;;-2.36;78.22
75312;BME280;63906;55.686;37.532;2022-11-27T13:40:43;101291.41;;;-2.22;78.30
75312;BME280;63906;55.686;37.532;2022-11-27T13:45:44;101312.25;;;-2.47;78.44
75312;BME280;63906;55.686;37.532;2022-11-27T13:50:52;101289.13;;;-2.48;78.45
75312;BME280;63906;55.686;37.532;2022-11-27T13:55:54;101304.44;;;-2.45;79.12
75312;BME280;63906;55.686;37.532;2022-11-27T14:00:56;101284.84;;;-2.49;78.79
75312;BME280;63906;55.686;37.532;2022-11-27T14:05:56;101303.41;;;-2.61;79.95
75312;BME280;63906;55.686;37.532;2022-11-27T14:11:01;101304.63;;;-2.50;79.22
75312;BME280;63906;55.686;37.532;2022-11-27T14:16:16;101311.28;;;-2.64;80.21
75312;BME280;63906;55.686;37.532;2022-11-27T14:21:36;101291.16;;;-2.97;80.57
75312;BME280;63906;55.686;37.532;2022-11-27T14:26:40;101293.06;;;-2.60;79.22
75312;BME280;63906;55.686;37.532;2022-11-27T14:31:42;101279.00;;;-2.53;79.87
75312;BME280;63906;55.686;37.532;2022-11-27T14:36:42;101280.88;;;-2.36;79.25
75312;BME280;63906;55.686;37.532;2022-11-27T14:41:43;101250.47;;;-2.48;78.59
75312;BME280;63906;55.686;37.532;2022-11-27T14:46:43;101278.03;;;-2.50;78.42
75312;BME280;63906;55.686;37.532;2022-11-27T14:51:44;101292.84;;;-2.35;78.56
75312;BME280;63906;55.686;37.532;2022-11-27T14:56:45;101282.13;;;-2.26;78.22
75312;BME280;63906;55.686;37.532;2022-11-27T15:02:12;101308.09;;;-2.10;78.34
75312;BME280;63906;55.686;37.532;2022-11-27T15:07:21;101306.25;;;-2.27;78.69
75312;BME280;63906;55.686;37.532;2022-11-27T15:12:28;101271.97;;;-2.49;78.73
75312;BME280;63906;55.686;37.532;2022-11-27T15:17:32;101304.44;;;-2.25;78.28
75312;BME280;63906;55.686;37.532;2022-11-27T15:22:33;101283.97;;;-2.68;79.63
75312;BME280;63906;55.686;37.532;2022-11-27T15:27:46;101301.25;;;-2.30;78.18
75312;BME280;63906;55.686;37.532;2022-11-27T15:32:49;101275.72;;;-2.77;78.86
75312;BME280;63906;55.686;37.532;2022-11-27T15:37:55;101287.06;;;-2.60;79.21
75312;BME280;63906;55.686;37.532;2022-11-27T15:42:56;101299.53;;;-2.31;78.83
75312;BME280;63906;55.686;37.532;2022-11-27T15:48:00;101270.81;;;-2.42;78.27
75312;BME280;63906;55.686;37.532;2022-11-27T15:53:01;101282.53;;;-2.35;78.58
75312;BME280;63906;55.686;37.532;2022-11-27T15:58:01;101274.59;;;-2.30;77.91
75312;BME280;63906;55.686;37.532;2022-11-27T16:03:02;101309.59;;;-2.45;78.15
75312;BME280;63906;55.686;37.532;2022-11-27T16:08:02;101306.97;;;-2.44;78.35
75312;BME280;63906;55.686;37.532;2022-11-27T16:13:04;101302.03;;;-2.48;79.18
75312;BME280;63906;55.686;37.532;2022-11-27T16:18:05;101298.84;;;-2.34;78.20
75312;BME280;63906;55.686;37.532;2022-11-27T16:23:06;101310.31;;;-2.62;78.61
75312;BME280;63906;55.686;37.532;2022-11-27T16:28:06;101297.34;;;-2.81;78.82
75312;BME280;63906;55.686;37.532;2022-11-27T16:33:07;101283.94;;;-2.89;78.75
75312;BME280;63906;55.686;37.532;2022-11-27T16:38:07;101330.09;;;-2.62;78.91
75312;BME280;63906;55.686;37.532;2022-11-27T16:43:08;101308.00;;;-2.48;78.70
75312;BME280;63906;55.686;37.532;2022-11-27T16:48:09;101305.22;;;-2.43;77.63
75312;BME280;63906;55.686;37.532;2022-11-27T16:53:09;101328.50;;;-2.45;77.94
75312;BME280;63906;55.686;37.532;2022-11-27T16:58:10;101301.75;;;-2.62;78.82
75312;BME280;63906;55.686;37.532;2022-11-27T17:03:10;101324.81;;;-2.59;78.74
75312;BME280;63906;55.686;37.532;2022-11-27T17:08:11;101331.00;;;-2.43;78.08
75312;BME280;63906;55.686;37.532;2022-11-27T17:13:11;101331.91;;;-2.64;78.58
75312;BME280;63906;55.686;37.532;2022-11-27T17:18:12;101302.97;;;-2.71;77.99
75312;BME280;63906;55.686;37.532;2022-11-27T17:23:12;101308.44;;;-2.79;78.44
75312;BME280;63906;55.686;37.532;2022-11-27T17:28:13;101298.00;;;-2.76;78.34
75312;BME280;63906;55.686;37.532;2022-11-27T17:33:13;101330.41;;;-2.50;78.17
75312;BME280;63906;55.686;37.532;2022-11-27T17:38:14;101304.72;;;-2.72;78.65
75312;BME280;63906;55.686;37.532;2022-11-27T17:43:15;101309.22;;;-2.56;78.33
75312;BME280;63906;55.686;37.532;2022-11-27T17:48:15;101320.44;;;-2.37;78.13
75312;BME280;63906;55.686;37.532;2022-11-27T17:53:16;101335.31;;;-2.64;78.59
75312;BME280;63906;55.686;37.532;2022-11-27T17:58:16;101349.63;;;-2.57;78.48
75312;BME280;63906;55.686;37.532;2022-11-27T18:03:17;101335.78;;;-2.34;78.40
75312;BME280;63906;55.686;37.532;2022-11-27T18:08:17;101338.88;;;-2.26;77.60
75312;BME280;63906;55.686;37.532;2022-11-27T18:13:18;101338.41;;;-2.56;78.26
75312;BME280;63906;55.686;37.532;2022-11-27T18:18:18;101315.25;;;-2.98;78.69
75312;BME280;63906;55.686;37.532;2022-11-27T18:23:19;101337.59;;;-2.36;77.81
75312;BME280;63906;55.686;37.532;2022-11-27T18:28:19;101315.34;;;-2.59;78.25
75312;BME280;63906;55.686;37.532;2022-11-27T18:33:20;101341.00;;;-2.56;77.78
75312;BME280;63906;55.686;37.532;2022-11-27T18:38:20;101343.63;;;-2.57;77.61
75312;BME280;63906;55.686;37.532;2022-11-27T18:43:21;101344.38;;;-2.76;78.48
75312;BME280;63906;55.686;37.532;2022-11-27T18:48:21;101339.63;;;-2.85;78.46
75312;BME280;63906;55.686;37.532;2022-11-27T18:53:22;101324.59;;;-2.95;79.01
75312;BME280;63906;55.686;37.532;2022-11-27T18:58:22;101300.91;;;-3.05;78.90
75312;BME280;63906;55.686;37.532;2022-11-27T19:03:23;101323.25;;;-2.84;79.08
75312;BME280;63906;55.686;37.532;2022-11-27T19:08:23;101349.88;;;-2.63;77.89
75312;BME280;63906;55.686;37.532;2022-11-27T19:13:24;101352.94;;;-2.53;78.06
75312;BME280;63906;55.686;37.532;2022-11-27T19:18:24;101341.16;;;-2.81;78.44
75312;BME280;63906;55.686;37.532;2022-11-27T19:23:25;101327.47;;;-3.03;79.06
75312;BME280;63906;55.686;37.532;2022-11-27T19:28:26;101343.94;;;-2.85;78.77
75312;BME280;63906;55.686;37.532;2022-11-27T19:33:26;101344.16;;;-2.49;77.97
75312;BME280;63906;55.686;37.532;2022-11-27T19:38:27;101333.13;;;-2.73;77.69
75312;BME280;63906;55.686;37.532;2022-11-27T19:43:28;101349.09;;;-2.85;78.73
75312;BME280;63906;55.686;37.532;2022-11-27T19:48:28;101327.84;;;-2.92;78.06
75312;BME280;63906;55.686;37.532;2022-11-27T19:53:29;101341.84;;;-2.97;78.78
75312;BME280;63906;55.686;37.532;2022-11-27T19:58:29;101334.97;;;-2.97;78.69
75312;BME280;63906;55.686;37.532;2022-11-27T20:03:30;101365.81;;;-2.95;78.52
75312;BME280;63906;55.686;37.532;2022-11-27T20:08:30;101348.47;;;-2.92;78.84
75312;BME280;63906;55.686;37.532;2022-11-27T20:13:31;101346.81;;;-2.93;77.89
75312;BME280;63906;55.686;37.532;2022-11-27T20:18:32;101359.09;;;-3.21;79.68
75312;BME280;63906;55.686;37.532;2022-11-27T20:23:33;101366.47;;;-2.90;78.71
75312;BME280;63906;55.686;37.532;2022-11-27T20:28:34;101382.47;;;-2.62;78.17
75312;BME280;63906;55.686;37.532;2022-11-27T20:33:35;101354.00;;;-2.79;78.06
75312;BME280;63906;55.686;37.532;2022-11-27T20:38:35;101363.53;;;-3.03;79.41
75312;BME280;63906;55.686;37.532;2022-11-27T20:43:36;101364.41;;;-2.82;79.02
75312;BME280;63906;55.686;37.532;2022-11-27T20:48:37;101385.75;;;-2.79;78.57
75312;BME280;63906;55.686;37.532;2022-11-27T20:53:39;101357.91;;;-2.91;78.63
75312;BME280;63906;55.686;37.532;2022-11-27T20:58:43;101395.56;;;-2.66;79.02
75312;BME280;63906;55.686;37.532;2022-11-27T21:03:46;101398.56;;;-2.77;79.65
75312;BME280;63906;55.686;37.532;2022-11-27T21:08:47;101383.00;;;-2.96;80.11
75312;BME280;63906;55.686;37.532;2022-11-27T21:13:48;101386.69;;;-2.81;79.06
75312;BME280;63906;55.686;37.532;2022-11-27T21:18:58;101365.75;;;-2.94;79.41
75312;BME280;63906;55.686;37.532;2022-11-27T21:23:59;101382.75;;;-2.90;80.00
75312;BME280;63906;55.686;37.532;2022-11-27T21:28:59;101368.22;;;-2.91;79.67
75312;BME280;63906;55.686;37.532;2022-11-27T21:34:01;101376.03;;;-2.94;79.64
75312;BME280;63906;55.686;37.532;2022-11-27T21:39:05;101397.50;;;-2.72;80.10
75312;BME280;63906;55.686;37.532;2022-11-27T21:44:06;101392.38;;;-2.51;78.75
75312;BME280;63906;55.686;37.532;2022-11-27T21:49:09;101401.16;;;-2.77;79.97
75312;BME280;63906;55.686;37.532;2022-11-27T21:54:11;101347.06;;;-3.21;80.90
75312;BME280;63906;55.686;37.532;2022-11-27T21:59:13;101398.63;;;-2.79;80.89
75312;BME280;63906;55.686;37.532;2022-11-27T22:04:14;101379.75;;;-3.01;80.28
75312;BME280;63906;55.686;37.532;2022-11-27T22:09:14;101408.88;;;-2.99;81.49
75312;BME280;63906;55.686;37.532;2022-11-27T22:14:15;101400.25;;;-2.54;79.57
75312;BME280;63906;55.686;37.532;2022-11-27T22:19:17;101384.06;;;-2.80;80.26
75312;BME280;63906;55.686;37.532;2022-11-27T22:24:18;101395.72;;;-2.91;81.10
75312;BME280;63906;55.686;37.532;2022-11-27T22:29:18;101376.31;;;-2.80;79.79
75312;BME280;63906;55.686;37.532;2022-11-27T22:34:19;101385.88;;;-2.82;80.35
75312;BME280;63906;55.686;37.532;2022-11-27T22:39:19;101399.88;;;-2.89;80.95
75312;BME280;63906;55.686;37.532;2022-11-27T22:44:20;101376.53;;;-2.84;80.81
75312;BME280;63906;55.686;37.532;2022-11-27T22:49:20;101389.91;;;-2.96;80.92
75312;BME280;63906;55.686;37.532;2022-11-27T22:54:21;101377.47;;;-2.87;80.80
75312;BME280;63906;55.686;37.532;2022-11-27T22:59:23;101407.81;;;-2.72;81.06
75312;BME280;63906;55.686;37.532;2022-11-27T23:04:23;101405.25;;;-2.51;80.61
75312;BME280;63906;55.686;37.532;2022-11-27T23:09:24;101404.44;;;-2.74;80.77
75312;BME280;63906;55.686;37.532;2022-11-27T23:14:25;101405.16;;;-2.70;81.04
75312;BME280;63906;55.686;37.532;2022-11-27T23:19:25;101402.41;;;-2.65;80.96
75312;BME280;63906;55.686;37.532;2022-11-27T23:24:26;101407.66;;;-2.47;80.30
75312;BME280;63906;55.686;37.532;2022-11-27T23:29:26;101402.53;;;-2.90;81.77
75312;BME280;63906;55.686;37.532;2022-11-27T23:34:27;101431.03;;;-2.51;80.70
75312;BME280;63906;55.686;37.532;2022-11-27T23:39:28;101411.81;;;-2.64;80.49
75312;BME280;63906;55.686;37.532;2022-11-27T23:44:28;101418.97;;;-2.51;80.88
75312;BME280;63906;55.686;37.532;2022-11-27T23:49:29;101448.09;;;-2.49;81.22
75312;BME280;63906;55.686;37.532;2022-11-27T23:54:29;101444.19;;;-2.37;80.54
75312;BME280;63906;55.686;37.532;2022-11-27T23:59:30;101441.25;;;-2.28;80.42
